sensor_id;sensor_type;location;lat;lon;timestamp;P1;durP1;ratioP1;P2;durP2;ratioP2
3523;SDS011;1776;53.330;11.498;2023-06-19T00:01:11;12.03;;;10.70;;
3523;SDS011;1776;53.330;11.498;2023-06-19T00:03:36;12.57;;;11.27;;
3523;SDS011;1776;53.330;11.498;2023-06-19T00:06:01;11.80;;;10.60;;
3523;SDS011;1776;53.330;11.498;2023-06-19T00:08:27;13.17;;;9.90;;
3523;SDS011;1776;53.330;11.498;2023-06-19T00:10:52;11.50;;;10.37;;
3523;SDS011;1776;53.330;11.498;2023-06-19T00:13:17;11.00;;;10.00;;
3523;SDS011;1776;53.330;11.498;2023-06-19T00:15:43;10.43;;;9.43;;
3523;SDS011;1776;53.330;11.498;2023-06-19T00:18:09;10.73;;;9.73;;
3523;SDS011;1776;53.330;11.498;2023-06-19T00:20:35;12.50;;;11.30;;
3523;SDS011;1776;53.330;11.498;2023-06-19T00:23:01;11.97;;;10.50;;
3523;SDS011;1776;53.330;11.498;2023-06-19T00:25:26;12.37;;;10.97;;
3523;SDS011;1776;53.330;11.498;2023-06-19T00:27:51;11.60;;;10.50;;
3523;SDS011;1776;53.330;11.498;2023-06-19T00:30:17;10.97;;;10.07;;
3523;SDS011;1776;53.330;11.498;2023-06-19T00:32:42;12.13;;;10.83;;
3523;SDS011;1776;53.330;11.498;2023-06-19T00:35:15;12.23;;;10.93;;
3523;SDS011;1776;53.330;11.498;2023-06-19T00:37:43;10.90;;;9.90;;
3523;SDS011;1776;53.330;11.498;2023-06-19T00:40:31;11.20;;;9.57;;
3523;SDS011;1776;53.330;11.498;2023-06-19T00:42:58;11.60;;;10.40;;
3523;SDS011;1776;53.330;11.498;2023-06-19T00:45:23;11.37;;;10.33;;
3523;SDS011;1776;53.330;11.498;2023-06-19T00:47:50;12.60;;;10.07;;
3523;SDS011;1776;53.330;11.498;2023-06-19T00:50:15;10.53;;;9.53;;
3523;SDS011;1776;53.330;11.498;2023-06-19T00:52:41;11.37;;;10.27;;
3523;SDS011;1776;53.330;11.498;2023-06-19T00:55:08;11.40;;;9.90;;
3523;SDS011;1776;53.330;11.498;2023-06-19T00:57:34;11.60;;;10.40;;
3523;SDS011;1776;53.330;11.498;2023-06-19T01:00:00;10.03;;;9.13;;
3523;SDS011;1776;53.330;11.498;2023-06-19T01:02:26;11.07;;;9.97;;
3523;SDS011;1776;53.330;11.498;2023-06-19T01:04:51;11.47;;;10.37;;
3523;SDS011;1776;53.330;11.498;2023-06-19T01:07:18;10.87;;;9.73;;
3523;SDS011;1776;53.330;11.498;2023-06-19T01:09:56;12.63;;;9.40;;
3523;SDS011;1776;53.330;11.498;2023-06-19T01:12:28;10.50;;;9.43;;
3523;SDS011;1776;53.330;11.498;2023-06-19T01:14:59;10.97;;;9.00;;
3523;SDS011;1776;53.330;11.498;2023-06-19T01:17:27;10.53;;;9.53;;
3523;SDS011;1776;53.330;11.498;2023-06-19T01:19:54;12.37;;;10.60;;
3523;SDS011;1776;53.330;11.498;2023-06-19T01:22:30;10.70;;;9.70;;
3523;SDS011;1776;53.330;11.498;2023-06-19T01:24:56;11.30;;;10.30;;
3523;SDS011;1776;53.330;11.498;2023-06-19T01:27:22;10.03;;;9.00;;
3523;SDS011;1776;53.330;11.498;2023-06-19T01:29:50;11.60;;;9.50;;
3523;SDS011;1776;53.330;11.498;2023-06-19T01:32:18;10.47;;;9.40;;
3523;SDS011;1776;53.330;11.498;2023-06-19T01:34:47;10.97;;;9.87;;
3523;SDS011;1776;53.330;11.498;2023-06-19T01:37:14;10.70;;;9.50;;
3523;SDS011;1776;53.330;11.498;2023-06-19T01:39:40;12.83;;;11.10;;
3523;SDS011;1776;53.330;11.498;2023-06-19T01:42:06;11.30;;;10.03;;
3523;SDS011;1776;53.330;11.498;2023-06-19T01:44:34;10.27;;;9.40;;
3523;SDS011;1776;53.330;11.498;2023-06-19T01:47:06;11.83;;;10.43;;
3523;SDS011;1776;53.330;11.498;2023-06-19T01:49:33;11.87;;;10.67;;
3523;SDS011;1776;53.330;11.498;2023-06-19T01:51:58;11.63;;;10.43;;
3523;SDS011;1776;53.330;11.498;2023-06-19T01:54:25;11.33;;;10.33;;
3523;SDS011;1776;53.330;11.498;2023-06-19T01:56:51;14.03;;;10.83;;
3523;SDS011;1776;53.330;11.498;2023-06-19T01:59:16;12.10;;;10.90;;
3523;SDS011;1776;53.330;11.498;2023-06-19T02:01:41;10.83;;;9.70;;
3523;SDS011;1776;53.330;11.498;2023-06-19T02:04:07;12.20;;;10.87;;
3523;SDS011;1776;53.330;11.498;2023-06-19T02:06:32;12.37;;;10.73;;
3523;SDS011;1776;53.330;11.498;2023-06-19T02:08:57;14.17;;;11.23;;
3523;SDS011;1776;53.330;11.498;2023-06-19T02:11:22;11.87;;;10.77;;
3523;SDS011;1776;53.330;11.498;2023-06-19T02:13:48;11.77;;;10.77;;
3523;SDS011;1776;53.330;11.498;2023-06-19T02:16:13;11.67;;;10.47;;
3523;SDS011;1776;53.330;11.498;2023-06-19T02:18:38;11.80;;;10.70;;
3523;SDS011;1776;53.330;11.498;2023-06-19T02:21:04;11.80;;;10.70;;
3523;SDS011;1776;53.330;11.498;2023-06-19T02:23:29;11.80;;;10.60;;
3523;SDS011;1776;53.330;11.498;2023-06-19T02:25:54;11.07;;;10.00;;
3523;SDS011;1776;53.330;11.498;2023-06-19T02:28:19;12.50;;;11.00;;
3523;SDS011;1776;53.330;11.498;2023-06-19T02:30:45;12.00;;;10.80;;
3523;SDS011;1776;53.330;11.498;2023-06-19T02:33:10;12.93;;;11.70;;
3523;SDS011;1776;53.330;11.498;2023-06-19T02:35:35;10.43;;;9.43;;
3523;SDS011;1776;53.330;11.498;2023-06-19T02:38:00;11.73;;;10.77;;
3523;SDS011;1776;53.330;11.498;2023-06-19T02:40:26;12.67;;;11.33;;
3523;SDS011;1776;53.330;11.498;2023-06-19T02:42:51;11.70;;;10.60;;
3523;SDS011;1776;53.330;11.498;2023-06-19T02:45:16;13.27;;;11.53;;
3523;SDS011;1776;53.330;11.498;2023-06-19T02:47:42;12.10;;;10.90;;
3523;SDS011;1776;53.330;11.498;2023-06-19T02:50:07;11.97;;;10.87;;
3523;SDS011;1776;53.330;11.498;2023-06-19T02:52:32;12.27;;;11.10;;
3523;SDS011;1776;53.330;11.498;2023-06-19T02:54:57;11.93;;;10.73;;
3523;SDS011;1776;53.330;11.498;2023-06-19T02:57:24;12.30;;;10.20;;
3523;SDS011;1776;53.330;11.498;2023-06-19T02:59:49;11.40;;;10.40;;
3523;SDS011;1776;53.330;11.498;2023-06-19T03:02:14;10.80;;;9.80;;
3523;SDS011;1776;53.330;11.498;2023-06-19T03:04:40;14.00;;;11.80;;
3523;SDS011;1776;53.330;11.498;2023-06-19T03:07:06;12.20;;;10.77;;
3523;SDS011;1776;53.330;11.498;2023-06-19T03:09:31;12.30;;;10.87;;
3523;SDS011;1776;53.330;11.498;2023-06-19T03:11:56;13.40;;;11.17;;
3523;SDS011;1776;53.330;11.498;2023-06-19T03:14:22;12.73;;;11.60;;
3523;SDS011;1776;53.330;11.498;2023-06-19T03:16:47;12.13;;;10.77;;
3523;SDS011;1776;53.330;11.498;2023-06-19T03:19:12;12.40;;;11.20;;
3523;SDS011;1776;53.330;11.498;2023-06-19T03:21:38;13.67;;;12.33;;
3523;SDS011;1776;53.330;11.498;2023-06-19T03:24:03;12.70;;;11.30;;
3523;SDS011;1776;53.330;11.498;2023-06-19T03:26:28;14.67;;;11.50;;
3523;SDS011;1776;53.330;11.498;2023-06-19T03:28:54;12.77;;;11.30;;
3523;SDS011;1776;53.330;11.498;2023-06-19T03:31:20;11.93;;;10.93;;
3523;SDS011;1776;53.330;11.498;2023-06-19T03:33:45;12.80;;;11.60;;
3523;SDS011;1776;53.330;11.498;2023-06-19T03:36:10;12.23;;;11.00;;
3523;SDS011;1776;53.330;11.498;2023-06-19T03:38:35;12.67;;;11.40;;
3523;SDS011;1776;53.330;11.498;2023-06-19T03:41:01;13.50;;;11.90;;
3523;SDS011;1776;53.330;11.498;2023-06-19T03:43:26;12.97;;;11.67;;
3523;SDS011;1776;53.330;11.498;2023-06-19T03:45:51;12.90;;;11.57;;
3523;SDS011;1776;53.330;11.498;2023-06-19T03:48:17;16.77;;;12.13;;
3523;SDS011;1776;53.330;11.498;2023-06-19T03:50:42;12.80;;;11.50;;
3523;SDS011;1776;53.330;11.498;2023-06-19T03:53:08;12.23;;;10.87;;
3523;SDS011;1776;53.330;11.498;2023-06-19T03:55:33;13.80;;;12.37;;
3523;SDS011;1776;53.330;11.498;2023-06-19T03:57:59;12.33;;;11.23;;
3523;SDS011;1776;53.330;11.498;2023-06-19T04:00:24;12.67;;;11.57;;
3523;SDS011;1776;53.330;11.498;2023-06-19T04:02:49;14.07;;;11.90;;
3523;SDS011;1776;53.330;11.498;2023-06-19T04:05:15;13.63;;;11.60;;
3523;SDS011;1776;53.330;11.498;2023-06-19T04:07:40;13.40;;;12.00;;
3523;SDS011;1776;53.330;11.498;2023-06-19T04:10:06;13.27;;;11.97;;
3523;SDS011;1776;53.330;11.498;2023-06-19T04:12:32;15.50;;;12.70;;
3523;SDS011;1776;53.330;11.498;2023-06-19T04:14:57;14.03;;;12.73;;
3523;SDS011;1776;53.330;11.498;2023-06-19T04:17:23;13.33;;;12.03;;
3523;SDS011;1776;53.330;11.498;2023-06-19T04:19:48;14.07;;;12.77;;
3523;SDS011;1776;53.330;11.498;2023-06-19T04:22:13;14.20;;;12.83;;
3523;SDS011;1776;53.330;11.498;2023-06-19T04:24:38;13.10;;;11.90;;
3523;SDS011;1776;53.330;11.498;2023-06-19T04:27:04;13.40;;;12.10;;
3523;SDS011;1776;53.330;11.498;2023-06-19T04:29:29;11.93;;;10.63;;
3523;SDS011;1776;53.330;11.498;2023-06-19T04:31:59;13.97;;;12.50;;
3523;SDS011;1776;53.330;11.498;2023-06-19T04:34:25;16.70;;;13.10;;
3523;SDS011;1776;53.330;11.498;2023-06-19T04:36:50;12.80;;;11.67;;
3523;SDS011;1776;53.330;11.498;2023-06-19T04:39:16;12.90;;;11.53;;
3523;SDS011;1776;53.330;11.498;2023-06-19T04:41:44;14.07;;;12.07;;
3523;SDS011;1776;53.330;11.498;2023-06-19T04:44:10;14.13;;;12.83;;
3523;SDS011;1776;53.330;11.498;2023-06-19T04:46:38;14.23;;;12.93;;
3523;SDS011;1776;53.330;11.498;2023-06-19T04:49:04;13.87;;;12.57;;
3523;SDS011;1776;53.330;11.498;2023-06-19T04:51:30;15.90;;;11.70;;
3523;SDS011;1776;53.330;11.498;2023-06-19T04:53:57;13.20;;;11.90;;
3523;SDS011;1776;53.330;11.498;2023-06-19T04:56:22;13.07;;;11.77;;
3523;SDS011;1776;53.330;11.498;2023-06-19T04:58:48;14.67;;;13.07;;
3523;SDS011;1776;53.330;11.498;2023-06-19T05:01:15;13.83;;;12.47;;
3523;SDS011;1776;53.330;11.498;2023-06-19T05:03:41;13.27;;;11.87;;
3523;SDS011;1776;53.330;11.498;2023-06-19T05:06:07;14.63;;;13.27;;
3523;SDS011;1776;53.330;11.498;2023-06-19T05:08:33;13.63;;;12.40;;
3523;SDS011;1776;53.330;11.498;2023-06-19T05:10:58;14.93;;;13.37;;
3523;SDS011;1776;53.330;11.498;2023-06-19T05:13:24;13.20;;;11.93;;
3523;SDS011;1776;53.330;11.498;2023-06-19T05:15:49;12.43;;;11.33;;
3523;SDS011;1776;53.330;11.498;2023-06-19T05:18:15;13.63;;;11.73;;
3523;SDS011;1776;53.330;11.498;2023-06-19T05:20:41;12.87;;;11.77;;
3523;SDS011;1776;53.330;11.498;2023-06-19T05:23:06;14.00;;;12.70;;
3523;SDS011;1776;53.330;11.498;2023-06-19T05:25:31;14.47;;;12.57;;
3523;SDS011;1776;53.330;11.498;2023-06-19T05:27:57;12.60;;;11.40;;
3523;SDS011;1776;53.330;11.498;2023-06-19T05:30:22;14.70;;;13.20;;
3523;SDS011;1776;53.330;11.498;2023-06-19T05:32:47;15.00;;;13.40;;
3523;SDS011;1776;53.330;11.498;2023-06-19T05:35:12;13.20;;;11.80;;
3523;SDS011;1776;53.330;11.498;2023-06-19T05:37:38;13.97;;;12.70;;
3523;SDS011;1776;53.330;11.498;2023-06-19T05:40:04;13.33;;;11.77;;
3523;SDS011;1776;53.330;11.498;2023-06-19T05:42:31;13.40;;;12.10;;
3523;SDS011;1776;53.330;11.498;2023-06-19T05:44:56;19.70;;;13.80;;
3523;SDS011;1776;53.330;11.498;2023-06-19T05:47:21;15.17;;;13.70;;
3523;SDS011;1776;53.330;11.498;2023-06-19T05:49:50;13.40;;;12.10;;
3523;SDS011;1776;53.330;11.498;2023-06-19T05:52:15;13.27;;;12.07;;
3523;SDS011;1776;53.330;11.498;2023-06-19T05:54:41;12.80;;;11.70;;
3523;SDS011;1776;53.330;11.498;2023-06-19T05:57:06;14.63;;;13.33;;
3523;SDS011;1776;53.330;11.498;2023-06-19T05:59:31;14.27;;;12.80;;
3523;SDS011;1776;53.330;11.498;2023-06-19T06:01:57;14.40;;;12.40;;
3523;SDS011;1776;53.330;11.498;2023-06-19T06:04:22;13.70;;;12.33;;
3523;SDS011;1776;53.330;11.498;2023-06-19T06:06:47;13.83;;;11.70;;
3523;SDS011;1776;53.330;11.498;2023-06-19T06:09:12;13.30;;;12.00;;
3523;SDS011;1776;53.330;11.498;2023-06-19T06:11:39;13.30;;;12.10;;
3523;SDS011;1776;53.330;11.498;2023-06-19T06:14:04;12.23;;;11.03;;
3523;SDS011;1776;53.330;11.498;2023-06-19T06:16:30;13.00;;;11.53;;
3523;SDS011;1776;53.330;11.498;2023-06-19T06:18:55;13.40;;;12.17;;
3523;SDS011;1776;53.330;11.498;2023-06-19T06:21:20;13.20;;;12.00;;
3523;SDS011;1776;53.330;11.498;2023-06-19T06:23:45;13.23;;;12.00;;
3523;SDS011;1776;53.330;11.498;2023-06-19T06:26:12;18.37;;;13.90;;
3523;SDS011;1776;53.330;11.498;2023-06-19T06:28:38;13.23;;;12.00;;
3523;SDS011;1776;53.330;11.498;2023-06-19T06:31:04;13.43;;;12.13;;
3523;SDS011;1776;53.330;11.498;2023-06-19T06:33:29;14.10;;;12.60;;
3523;SDS011;1776;53.330;11.498;2023-06-19T06:35:54;13.10;;;11.87;;
3523;SDS011;1776;53.330;11.498;2023-06-19T06:38:20;13.70;;;12.40;;
3523;SDS011;1776;53.330;11.498;2023-06-19T06:40:45;12.70;;;11.50;;
3523;SDS011;1776;53.330;11.498;2023-06-19T06:43:11;12.53;;;11.33;;
3523;SDS011;1776;53.330;11.498;2023-06-19T06:45:36;13.00;;;11.70;;
3523;SDS011;1776;53.330;11.498;2023-06-19T06:48:03;12.03;;;11.07;;
3523;SDS011;1776;53.330;11.498;2023-06-19T06:50:29;12.90;;;11.80;;
3523;SDS011;1776;53.330;11.498;2023-06-19T06:52:57;13.63;;;12.30;;
3523;SDS011;1776;53.330;11.498;2023-06-19T06:55:22;12.87;;;11.60;;
3523;SDS011;1776;53.330;11.498;2023-06-19T06:57:47;14.87;;;12.23;;
3523;SDS011;1776;53.330;11.498;2023-06-19T07:00:12;14.67;;;12.40;;
3523;SDS011;1776;53.330;11.498;2023-06-19T07:02:38;14.30;;;13.00;;
3523;SDS011;1776;53.330;11.498;2023-06-19T07:05:06;13.97;;;12.50;;
3523;SDS011;1776;53.330;11.498;2023-06-19T07:07:32;12.60;;;11.40;;
3523;SDS011;1776;53.330;11.498;2023-06-19T07:09:57;12.53;;;11.23;;
3523;SDS011;1776;53.330;11.498;2023-06-19T07:12:22;13.63;;;12.20;;
3523;SDS011;1776;53.330;11.498;2023-06-19T07:14:47;12.53;;;11.43;;
3523;SDS011;1776;53.330;11.498;2023-06-19T07:17:12;14.40;;;13.10;;
3523;SDS011;1776;53.330;11.498;2023-06-19T07:19:38;14.07;;;12.77;;
3523;SDS011;1776;53.330;11.498;2023-06-19T07:22:03;16.50;;;12.40;;
3523;SDS011;1776;53.330;11.498;2023-06-19T07:24:29;13.93;;;12.13;;
3523;SDS011;1776;53.330;11.498;2023-06-19T07:26:54;11.33;;;10.30;;
3523;SDS011;1776;53.330;11.498;2023-06-19T07:29:20;12.67;;;11.50;;
3523;SDS011;1776;53.330;11.498;2023-06-19T07:31:46;12.17;;;11.13;;
3523;SDS011;1776;53.330;11.498;2023-06-19T07:34:11;12.57;;;11.37;;
3523;SDS011;1776;53.330;11.498;2023-06-19T07:36:37;12.40;;;11.10;;
3523;SDS011;1776;53.330;11.498;2023-06-19T07:39:03;13.10;;;11.77;;
3523;SDS011;1776;53.330;11.498;2023-06-19T07:41:28;13.60;;;12.30;;
3523;SDS011;1776;53.330;11.498;2023-06-19T07:43:53;11.63;;;10.60;;
3523;SDS011;1776;53.330;11.498;2023-06-19T07:46:18;12.70;;;11.50;;
3523;SDS011;1776;53.330;11.498;2023-06-19T07:48:44;13.43;;;12.10;;
3523;SDS011;1776;53.330;11.498;2023-06-19T07:51:09;14.40;;;13.00;;
3523;SDS011;1776;53.330;11.498;2023-06-19T07:53:35;16.93;;;13.53;;
3523;SDS011;1776;53.330;11.498;2023-06-19T07:56:00;12.73;;;11.53;;
3523;SDS011;1776;53.330;11.498;2023-06-19T07:58:25;13.53;;;12.27;;
3523;SDS011;1776;53.330;11.498;2023-06-19T08:00:51;14.97;;;12.77;;
3523;SDS011;1776;53.330;11.498;2023-06-19T08:03:16;12.87;;;11.77;;
3523;SDS011;1776;53.330;11.498;2023-06-19T08:05:41;13.83;;;12.47;;
3523;SDS011;1776;53.330;11.498;2023-06-19T08:08:06;13.30;;;11.93;;
3523;SDS011;1776;53.330;11.498;2023-06-19T08:10:32;13.07;;;11.87;;
3523;SDS011;1776;53.330;11.498;2023-06-19T08:12:57;13.83;;;12.50;;
3523;SDS011;1776;53.330;11.498;2023-06-19T08:15:22;14.57;;;13.17;;
3523;SDS011;1776;53.330;11.498;2023-06-19T08:17:47;12.30;;;11.20;;
3523;SDS011;1776;53.330;11.498;2023-06-19T08:20:13;12.60;;;11.47;;
3523;SDS011;1776;53.330;11.498;2023-06-19T08:22:38;15.93;;;12.30;;
3523;SDS011;1776;53.330;11.498;2023-06-19T08:25:04;15.20;;;11.80;;
3523;SDS011;1776;53.330;11.498;2023-06-19T08:27:30;14.03;;;11.80;;
3523;SDS011;1776;53.330;11.498;2023-06-19T08:29:55;12.63;;;11.47;;
3523;SDS011;1776;53.330;11.498;2023-06-19T08:32:20;12.73;;;11.57;;
3523;SDS011;1776;53.330;11.498;2023-06-19T08:34:45;12.70;;;11.40;;
3523;SDS011;1776;53.330;11.498;2023-06-19T08:37:11;13.63;;;11.67;;
3523;SDS011;1776;53.330;11.498;2023-06-19T08:39:36;13.30;;;12.17;;
3523;SDS011;1776;53.330;11.498;2023-06-19T08:42:05;12.60;;;11.33;;
3523;SDS011;1776;53.330;11.498;2023-06-19T08:44:31;14.60;;;13.30;;
3523;SDS011;1776;53.330;11.498;2023-06-19T08:46:58;14.07;;;11.43;;
3523;SDS011;1776;53.330;11.498;2023-06-19T08:49:23;12.10;;;11.00;;
3523;SDS011;1776;53.330;11.498;2023-06-19T08:51:48;14.27;;;12.87;;
3523;SDS011;1776;53.330;11.498;2023-06-19T08:54:14;12.73;;;11.33;;
3523;SDS011;1776;53.330;11.498;2023-06-19T08:56:39;12.47;;;11.17;;
3523;SDS011;1776;53.330;11.498;2023-06-19T08:59:11;12.90;;;11.60;;
3523;SDS011;1776;53.330;11.498;2023-06-19T09:01:38;12.33;;;11.07;;
3523;SDS011;1776;53.330;11.498;2023-06-19T09:04:08;13.80;;;12.50;;
3523;SDS011;1776;53.330;11.498;2023-06-19T09:07:19;12.60;;;11.30;;
3523;SDS011;1776;53.330;11.498;2023-06-19T09:09:27;13.03;;;11.33;;
3523;SDS011;1776;53.330;11.498;2023-06-19T09:12:05;13.03;;;11.77;;
3523;SDS011;1776;53.330;11.498;2023-06-19T09:17:02;13.40;;;11.60;;
3523;SDS011;1776;53.330;11.498;2023-06-19T09:19:28;12.40;;;11.33;;
3523;SDS011;1776;53.330;11.498;2023-06-19T09:21:58;12.37;;;11.30;;
3523;SDS011;1776;53.330;11.498;2023-06-19T09:24:32;13.67;;;12.37;;
3523;SDS011;1776;53.330;11.498;2023-06-19T09:29:43;11.50;;;10.50;;
3523;SDS011;1776;53.330;11.498;2023-06-19T09:32:22;13.77;;;12.37;;
3523;SDS011;1776;53.330;11.498;2023-06-19T09:34:50;13.00;;;11.77;;
3523;SDS011;1776;53.330;11.498;2023-06-19T09:37:20;11.63;;;10.60;;
3523;SDS011;1776;53.330;11.498;2023-06-19T09:39:50;12.03;;;10.83;;
3523;SDS011;1776;53.330;11.498;2023-06-19T09:42:18;12.80;;;11.60;;
3523;SDS011;1776;53.330;11.498;2023-06-19T09:44:48;11.57;;;10.50;;
3523;SDS011;1776;53.330;11.498;2023-06-19T09:47:16;11.20;;;10.20;;
3523;SDS011;1776;53.330;11.498;2023-06-19T09:49:52;12.07;;;10.63;;
3523;SDS011;1776;53.330;11.498;2023-06-19T09:52:19;14.53;;;10.90;;
3523;SDS011;1776;53.330;11.498;2023-06-19T09:54:47;13.83;;;12.50;;
3523;SDS011;1776;53.330;11.498;2023-06-19T09:57:14;12.57;;;11.30;;
3523;SDS011;1776;53.330;11.498;2023-06-19T09:59:40;13.10;;;11.23;;
3523;SDS011;1776;53.330;11.498;2023-06-19T10:02:06;11.17;;;10.17;;
3523;SDS011;1776;53.330;11.498;2023-06-19T10:04:46;10.13;;;9.23;;
3523;SDS011;1776;53.330;11.498;2023-06-19T10:07:16;13.27;;;11.90;;
3523;SDS011;1776;53.330;11.498;2023-06-19T10:10:02;11.70;;;10.70;;
3523;SDS011;1776;53.330;11.498;2023-06-19T10:15:26;12.93;;;11.80;;
3523;SDS011;1776;53.330;11.498;2023-06-19T10:17:53;11.70;;;10.57;;
3523;SDS011;1776;53.330;11.498;2023-06-19T10:23:14;11.77;;;10.67;;
3523;SDS011;1776;53.330;11.498;2023-06-19T10:25:44;11.77;;;10.57;;
3523;SDS011;1776;53.330;11.498;2023-06-19T10:28:18;11.30;;;10.23;;
3523;SDS011;1776;53.330;11.498;2023-06-19T10:30:51;11.23;;;10.20;;
3523;SDS011;1776;53.330;11.498;2023-06-19T10:33:29;13.03;;;11.77;;
3523;SDS011;1776;53.330;11.498;2023-06-19T10:35:57;13.23;;;12.00;;
3523;SDS011;1776;53.330;11.498;2023-06-19T10:38:24;12.20;;;11.00;;
3523;SDS011;1776;53.330;11.498;2023-06-19T10:40:50;12.07;;;10.90;;
3523;SDS011;1776;53.330;11.498;2023-06-19T10:43:19;11.73;;;10.57;;
3523;SDS011;1776;53.330;11.498;2023-06-19T10:45:49;11.97;;;10.63;;
3523;SDS011;1776;53.330;11.498;2023-06-19T10:48:33;11.90;;;10.80;;
3523;SDS011;1776;53.330;11.498;2023-06-19T10:50:59;12.50;;;10.30;;
3523;SDS011;1776;53.330;11.498;2023-06-19T10:55:57;11.23;;;10.23;;
3523;SDS011;1776;53.330;11.498;2023-06-19T10:58:24;11.70;;;10.30;;
3523;SDS011;1776;53.330;11.498;2023-06-19T11:00:50;12.27;;;11.13;;
3523;SDS011;1776;53.330;11.498;2023-06-19T11:03:15;10.53;;;9.37;;
3523;SDS011;1776;53.330;11.498;2023-06-19T11:05:43;9.90;;;9.00;;
3523;SDS011;1776;53.330;11.498;2023-06-19T11:08:09;10.80;;;9.90;;
3523;SDS011;1776;53.330;11.498;2023-06-19T11:10:34;12.30;;;11.10;;
3523;SDS011;1776;53.330;11.498;2023-06-19T11:12:59;9.47;;;8.70;;
3523;SDS011;1776;53.330;11.498;2023-06-19T11:15:29;11.13;;;8.47;;
3523;SDS011;1776;53.330;11.498;2023-06-19T11:17:59;9.07;;;8.27;;
3523;SDS011;1776;53.330;11.498;2023-06-19T11:20:26;10.70;;;9.80;;
3523;SDS011;1776;53.330;11.498;2023-06-19T11:22:55;10.33;;;9.43;;
3523;SDS011;1776;53.330;11.498;2023-06-19T11:25:23;10.47;;;9.47;;
3523;SDS011;1776;53.330;11.498;2023-06-19T11:27:48;10.40;;;9.40;;
3523;SDS011;1776;53.330;11.498;2023-06-19T11:30:17;10.97;;;10.03;;
3523;SDS011;1776;53.330;11.498;2023-06-19T11:32:45;14.63;;;9.60;;
3523;SDS011;1776;53.330;11.498;2023-06-19T11:35:16;11.43;;;10.33;;
3523;SDS011;1776;53.330;11.498;2023-06-19T11:37:42;11.20;;;10.20;;
3523;SDS011;1776;53.330;11.498;2023-06-19T11:40:09;10.37;;;9.43;;
3523;SDS011;1776;53.330;11.498;2023-06-19T11:42:48;11.40;;;9.97;;
3523;SDS011;1776;53.330;11.498;2023-06-19T11:45:16;10.90;;;9.80;;
3523;SDS011;1776;53.330;11.498;2023-06-19T11:47:45;11.83;;;10.77;;
3523;SDS011;1776;53.330;11.498;2023-06-19T11:50:11;10.67;;;9.77;;
3523;SDS011;1776;53.330;11.498;2023-06-19T11:52:38;14.40;;;10.67;;
3523;SDS011;1776;53.330;11.498;2023-06-19T11:55:04;11.90;;;10.80;;
3523;SDS011;1776;53.330;11.498;2023-06-19T11:57:31;13.83;;;11.00;;
3523;SDS011;1776;53.330;11.498;2023-06-19T11:59:58;12.87;;;11.70;;
3523;SDS011;1776;53.330;11.498;2023-06-19T12:02:23;13.23;;;12.03;;
3523;SDS011;1776;53.330;11.498;2023-06-19T12:04:48;14.03;;;11.67;;
3523;SDS011;1776;53.330;11.498;2023-06-19T12:07:14;12.70;;;11.50;;
3523;SDS011;1776;53.330;11.498;2023-06-19T12:09:40;12.60;;;11.50;;
3523;SDS011;1776;53.330;11.498;2023-06-19T12:12:06;13.20;;;12.00;;
3523;SDS011;1776;53.330;11.498;2023-06-19T12:14:32;12.30;;;11.20;;
3523;SDS011;1776;53.330;11.498;2023-06-19T12:16:57;12.53;;;11.33;;
3523;SDS011;1776;53.330;11.498;2023-06-19T12:19:23;11.80;;;10.90;;
3523;SDS011;1776;53.330;11.498;2023-06-19T12:21:51;12.37;;;11.37;;
3523;SDS011;1776;53.330;11.498;2023-06-19T12:24:16;12.97;;;11.87;;
3523;SDS011;1776;53.330;11.498;2023-06-19T12:26:41;12.10;;;10.97;;
3523;SDS011;1776;53.330;11.498;2023-06-19T12:29:07;11.00;;;10.00;;
3523;SDS011;1776;53.330;11.498;2023-06-19T12:31:33;10.40;;;9.60;;
3523;SDS011;1776;53.330;11.498;2023-06-19T12:33:59;11.87;;;10.77;;
3523;SDS011;1776;53.330;11.498;2023-06-19T12:36:26;12.23;;;11.10;;
3523;SDS011;1776;53.330;11.498;2023-06-19T12:38:52;12.20;;;11.10;;
3523;SDS011;1776;53.330;11.498;2023-06-19T12:41:18;12.00;;;10.90;;
3523;SDS011;1776;53.330;11.498;2023-06-19T12:43:44;11.40;;;10.50;;
3523;SDS011;1776;53.330;11.498;2023-06-19T12:46:09;11.73;;;10.37;;
3523;SDS011;1776;53.330;11.498;2023-06-19T12:48:34;12.00;;;10.80;;
3523;SDS011;1776;53.330;11.498;2023-06-19T12:50:59;12.87;;;11.63;;
3523;SDS011;1776;53.330;11.498;2023-06-19T12:53:25;12.37;;;11.27;;
3523;SDS011;1776;53.330;11.498;2023-06-19T12:55:54;11.37;;;10.37;;
3523;SDS011;1776;53.330;11.498;2023-06-19T12:58:19;11.60;;;10.50;;
3523;SDS011;1776;53.330;11.498;2023-06-19T13:00:44;12.90;;;11.73;;
3523;SDS011;1776;53.330;11.498;2023-06-19T13:03:09;13.03;;;11.83;;
3523;SDS011;1776;53.330;11.498;2023-06-19T13:05:35;12.53;;;11.37;;
3523;SDS011;1776;53.330;11.498;2023-06-19T13:08:00;12.13;;;11.13;;
3523;SDS011;1776;53.330;11.498;2023-06-19T13:10:26;11.20;;;10.30;;
3523;SDS011;1776;53.330;11.498;2023-06-19T13:12:51;12.67;;;11.57;;
3523;SDS011;1776;53.330;11.498;2023-06-19T13:15:16;12.63;;;11.50;;
3523;SDS011;1776;53.330;11.498;2023-06-19T13:17:42;12.53;;;11.53;;
3523;SDS011;1776;53.330;11.498;2023-06-19T13:20:07;11.63;;;10.63;;
3523;SDS011;1776;53.330;11.498;2023-06-19T13:22:33;13.23;;;12.13;;
3523;SDS011;1776;53.330;11.498;2023-06-19T13:24:58;14.17;;;12.67;;
3523;SDS011;1776;53.330;11.498;2023-06-19T13:27:23;11.37;;;10.33;;
3523;SDS011;1776;53.330;11.498;2023-06-19T13:29:49;13.17;;;11.97;;
3523;SDS011;1776;53.330;11.498;2023-06-19T13:32:14;13.47;;;12.17;;
3523;SDS011;1776;53.330;11.498;2023-06-19T13:34:39;15.50;;;12.30;;
3523;SDS011;1776;53.330;11.498;2023-06-19T13:37:04;13.43;;;12.13;;
3523;SDS011;1776;53.330;11.498;2023-06-19T13:39:30;13.60;;;12.33;;
3523;SDS011;1776;53.330;11.498;2023-06-19T13:41:55;12.83;;;11.53;;
3523;SDS011;1776;53.330;11.498;2023-06-19T13:44:20;13.37;;;12.10;;
3523;SDS011;1776;53.330;11.498;2023-06-19T13:46:46;12.40;;;11.30;;
3523;SDS011;1776;53.330;11.498;2023-06-19T13:49:12;12.97;;;11.77;;
3523;SDS011;1776;53.330;11.498;2023-06-19T13:51:38;13.40;;;12.30;;
3523;SDS011;1776;53.330;11.498;2023-06-19T13:54:03;13.33;;;11.87;;
3523;SDS011;1776;53.330;11.498;2023-06-19T13:56:29;12.60;;;11.50;;
3523;SDS011;1776;53.330;11.498;2023-06-19T13:58:55;14.07;;;12.87;;
3523;SDS011;1776;53.330;11.498;2023-06-19T14:01:20;13.17;;;12.07;;
3523;SDS011;1776;53.330;11.498;2023-06-19T14:03:45;13.37;;;12.27;;
3523;SDS011;1776;53.330;11.498;2023-06-19T14:06:10;12.60;;;11.60;;
3523;SDS011;1776;53.330;11.498;2023-06-19T14:08:37;13.40;;;12.30;;
3523;SDS011;1776;53.330;11.498;2023-06-19T14:11:04;13.70;;;12.50;;
3523;SDS011;1776;53.330;11.498;2023-06-19T14:13:30;13.70;;;12.57;;
3523;SDS011;1776;53.330;11.498;2023-06-19T14:15:55;13.07;;;11.90;;
3523;SDS011;1776;53.330;11.498;2023-06-19T14:18:21;14.03;;;12.77;;
3523;SDS011;1776;53.330;11.498;2023-06-19T14:20:46;13.83;;;12.63;;
3523;SDS011;1776;53.330;11.498;2023-06-19T14:23:11;13.00;;;11.60;;
3523;SDS011;1776;53.330;11.498;2023-06-19T14:25:37;12.73;;;11.57;;
3523;SDS011;1776;53.330;11.498;2023-06-19T14:28:02;12.80;;;11.70;;
3523;SDS011;1776;53.330;11.498;2023-06-19T14:30:29;12.73;;;11.73;;
3523;SDS011;1776;53.330;11.498;2023-06-19T14:32:54;13.70;;;12.60;;
3523;SDS011;1776;53.330;11.498;2023-06-19T14:35:20;12.57;;;11.40;;
3523;SDS011;1776;53.330;11.498;2023-06-19T14:37:45;14.13;;;12.73;;
3523;SDS011;1776;53.330;11.498;2023-06-19T14:40:10;13.57;;;12.37;;
3523;SDS011;1776;53.330;11.498;2023-06-19T14:42:36;13.30;;;12.00;;
3523;SDS011;1776;53.330;11.498;2023-06-19T14:45:01;12.83;;;11.83;;